Keezletown, Virginia
Current Conditions -  °F | °C
As of 9:55 PM on Thursday 27 Nov 2014 (Local Time) from KVBW Reporting Station
Scattered Clouds Scattered Clouds  
Wind Chill: 24°   Ceiling: Unl
Heat Index: 33°   Visibility: 10mi
Dew Point: 21°   Wind: 12mph
Humidity: 62%   Direction: 280°W
Pressure: 30.17"   Gusts: 16mph
Location:  38.41°N, 78.8°W
Report Text: KVBW 280255Z AUTO 28010G14KT 10SM SCT044 SCT050 00/M06 A3017 RMK AO2 T00041061
Loading
Personal Weather Stations






























Interactive Weather Map New forecast layout! Learn more

10-Day Weather Forecast

Advertisements
Track Severe Weather on mobile